createdAt,value
2022-10-06T00:01:10.834Z,58.90
2022-10-06T00:03:45.591Z,59.10
2022-10-06T00:06:20.099Z,58.90
2022-10-06T00:08:53.475Z,59.00
2022-10-06T00:11:26.773Z,58.90
2022-10-06T00:14:00.402Z,58.90
2022-10-06T00:16:35.325Z,59.00
2022-10-06T00:19:08.844Z,58.90
2022-10-06T00:21:42.668Z,58.90
2022-10-06T00:24:16.198Z,58.90
2022-10-06T00:26:49.491Z,58.90
2022-10-06T00:29:22.765Z,59.00
2022-10-06T00:31:57.500Z,59.10
2022-10-06T00:34:30.801Z,59.10
2022-10-06T00:37:04.212Z,59.20
2022-10-06T00:39:37.572Z,59.20
2022-10-06T00:42:24.383Z,59.20
2022-10-06T00:45:01.844Z,59.50
2022-10-06T00:47:36.927Z,59.30
2022-10-06T13:08:01.180Z,48.30
2022-10-06T13:10:35.517Z,48.10
2022-10-06T13:13:24.309Z,48.40
2022-10-06T13:16:00.707Z,48.10
2022-10-06T13:18:34.239Z,48.40
2022-10-06T13:21:16.334Z,48.10
2022-10-06T13:23:52.372Z,47.40
2022-10-06T13:26:29.407Z,47.70
2022-10-06T13:29:31.810Z,47.30
2022-10-06T13:32:17.978Z,46.60
2022-10-06T13:34:51.570Z,47.10
2022-10-06T13:37:25.236Z,46.90
2022-10-06T13:40:01.007Z,47.40
2022-10-06T13:42:35.107Z,47.10
2022-10-06T13:45:16.009Z,47.30
2022-10-06T13:48:19.298Z,47.10
2022-10-06T13:50:54.307Z,46.90
2022-10-06T13:53:31.684Z,46.90
2022-10-06T13:56:06.876Z,46.90
2022-10-06T13:58:40.441Z,46.60
2022-10-06T14:01:13.755Z,46.70
2022-10-06T14:03:47.163Z,46.70
2022-10-06T14:06:25.014Z,46.40
2022-10-06T14:09:02.217Z,46.10
2022-10-06T14:11:36.928Z,46.30
2022-10-06T14:14:18.420Z,46.20
2022-10-06T14:16:53.932Z,46.20
2022-10-06T14:19:39.001Z,46.30
2022-10-06T14:22:32.464Z,46.00
2022-10-06T14:25:15.801Z,46.00
2022-10-06T14:27:52.063Z,46.20
2022-10-06T14:30:25.424Z,46.00
2022-10-06T14:32:58.880Z,46.20
2022-10-06T14:35:32.545Z,46.10
2022-10-06T14:38:05.997Z,46.20
2022-10-06T14:40:42.505Z,46.30
2022-10-06T14:43:17.326Z,46.40
2022-10-06T14:45:51.105Z,46.50
2022-10-06T14:48:24.721Z,46.50
2022-10-06T14:50:58.002Z,46.50
2022-10-06T14:53:32.271Z,46.50
2022-10-06T14:56:09.090Z,46.50
2022-10-06T14:58:45.811Z,46.60
2022-10-06T15:01:22.315Z,47.30
2022-10-06T15:03:58.516Z,46.80
2022-10-06T15:06:49.445Z,46.80
2022-10-06T15:09:23.772Z,46.80
2022-10-06T15:11:57.657Z,47.00
2022-10-06T15:14:33.558Z,46.90
2022-10-06T15:17:07.216Z,46.80
2022-10-06T15:19:40.909Z,46.90
2022-10-06T15:22:14.158Z,46.90
2022-10-06T15:24:51.370Z,46.70
2022-10-06T15:27:42.786Z,46.80
2022-10-06T15:30:17.611Z,46.60
2022-10-06T15:32:51.108Z,46.90
2022-10-06T15:35:24.478Z,46.50
2022-10-06T15:37:57.875Z,46.90
2022-10-06T15:40:31.334Z,46.90
2022-10-06T15:43:04.649Z,46.80
2022-10-06T15:45:39.552Z,46.70
2022-10-06T15:48:13.117Z,46.80
2022-10-06T15:50:46.712Z,46.90
2022-10-06T15:53:22.586Z,46.90
2022-10-06T15:55:58.197Z,46.80
2022-10-06T15:58:31.973Z,46.80
2022-10-06T16:01:08.856Z,46.90
2022-10-06T16:03:44.334Z,47.10
2022-10-06T16:06:17.769Z,46.90
2022-10-06T16:08:51.245Z,47.00
2022-10-06T16:11:24.733Z,46.90
2022-10-06T16:13:58.065Z,46.70
2022-10-06T16:16:33.439Z,46.80
2022-10-06T16:19:06.904Z,46.90
2022-10-06T16:21:41.392Z,46.80
2022-10-06T16:24:14.624Z,46.80
2022-10-06T16:26:50.099Z,46.80
2022-10-06T16:29:24.147Z,46.90
2022-10-06T16:31:59.706Z,46.90
2022-10-06T16:34:33.414Z,46.80
2022-10-06T16:37:06.824Z,46.80
2022-10-06T16:39:40.258Z,46.80
2022-10-06T16:42:13.703Z,46.90
2022-10-06T16:44:46.965Z,46.80
2022-10-06T16:47:21.682Z,46.90
2022-10-06T16:49:55.116Z,47.10
2022-10-06T16:52:28.594Z,47.00
2022-10-06T16:55:02.858Z,47.00
2022-10-06T16:57:36.234Z,47.10
2022-10-06T17:00:12.191Z,47.30
2022-10-06T17:02:47.436Z,47.40
2022-10-06T17:05:20.866Z,47.40
2022-10-06T17:07:58.407Z,47.70
2022-10-06T17:10:32.333Z,47.80
2022-10-06T17:13:05.937Z,47.90
2022-10-06T17:15:39.299Z,47.90
2022-10-06T17:18:14.275Z,48.20
2022-10-06T17:20:56.088Z,48.20
2022-10-06T17:23:30.775Z,48.40
2022-10-06T17:26:12.469Z,48.60
2022-10-06T17:28:47.436Z,48.60
2022-10-06T17:31:23.728Z,48.60
2022-10-06T17:33:58.703Z,48.70
2022-10-06T17:36:32.415Z,48.50
2022-10-06T17:39:07.726Z,48.80
2022-10-06T17:41:43.131Z,48.80
2022-10-06T17:44:22.807Z,48.90
2022-10-06T17:46:59.299Z,48.90
2022-10-06T17:49:35.236Z,48.80
2022-10-06T17:52:08.848Z,49.00
2022-10-06T17:54:43.195Z,49.00
2022-10-06T17:57:16.739Z,49.20
2022-10-06T17:59:50.018Z,49.30
2022-10-06T18:02:23.599Z,49.30
2022-10-06T18:04:58.413Z,49.30
2022-10-06T18:07:31.878Z,49.30
2022-10-06T18:10:23.313Z,49.30
2022-10-06T18:12:56.661Z,49.50
2022-10-06T18:15:31.753Z,49.50
2022-10-06T18:18:05.925Z,49.60
2022-10-06T18:20:41.814Z,49.80
2022-10-06T18:23:15.511Z,49.70
2022-10-06T18:25:48.801Z,49.70
2022-10-06T18:28:22.213Z,49.90
2022-10-06T18:30:55.663Z,49.90
2022-10-06T18:36:24.484Z,50.10
2022-10-06T18:39:00.150Z,50.00
2022-10-06T18:41:33.610Z,50.10
2022-10-06T18:44:07.750Z,49.90
2022-10-06T18:46:58.923Z,50.20
2022-10-06T18:49:33.402Z,50.20
2022-10-06T18:52:08.437Z,50.80
2022-10-06T18:54:44.527Z,50.30
2022-10-06T18:57:18.048Z,50.30
2022-10-06T18:59:51.393Z,50.40
2022-10-06T19:02:26.335Z,50.40
2022-10-06T19:05:00.037Z,50.50
2022-10-06T19:07:34.733Z,50.50
2022-10-06T19:10:08.836Z,50.70
2022-10-06T19:12:42.227Z,50.80
2022-10-06T19:15:20.428Z,50.90
2022-10-06T19:17:55.363Z,50.90
2022-10-06T19:20:28.669Z,50.80
2022-10-06T19:23:04.341Z,50.70
2022-10-06T19:25:37.818Z,50.80
2022-10-06T19:28:11.158Z,50.80
2022-10-06T19:30:44.486Z,50.90
2022-10-06T19:33:17.854Z,51.10
2022-10-06T19:35:53.121Z,51.10
2022-10-06T19:38:29.267Z,51.10
2022-10-06T19:41:17.260Z,51.40
2022-10-06T19:43:51.361Z,51.20
2022-10-06T19:46:24.813Z,51.40
2022-10-06T19:49:05.427Z,51.50
2022-10-06T19:51:40.375Z,51.50
2022-10-06T19:54:15.356Z,51.70
2022-10-06T19:56:49.357Z,51.60
2022-10-06T19:59:23.433Z,51.90
2022-10-06T20:01:57.030Z,52.10
2022-10-06T20:04:30.643Z,52.20
2022-10-06T20:07:04.744Z,52.30
2022-10-06T20:09:39.923Z,52.40
2022-10-06T20:12:13.738Z,52.60
2022-10-06T20:14:47.237Z,52.60
2022-10-06T20:17:21.107Z,52.70
2022-10-06T20:19:57.875Z,52.80
2022-10-06T20:22:31.789Z,52.90
2022-10-06T20:25:07.422Z,52.80
2022-10-06T20:27:41.142Z,53.10
2022-10-06T20:30:14.735Z,53.00
2022-10-06T20:32:48.004Z,53.00
2022-10-06T20:35:21.287Z,52.90
2022-10-06T20:37:54.907Z,53.20
2022-10-06T20:40:42.718Z,53.10
2022-10-06T20:43:16.890Z,53.00
2022-10-06T20:45:50.296Z,53.20
2022-10-06T20:48:29.528Z,53.10
2022-10-06T20:51:02.914Z,53.00
2022-10-06T20:53:36.403Z,53.20
2022-10-06T20:56:11.454Z,53.10
2022-10-06T20:58:45.258Z,53.20
2022-10-06T21:01:21.811Z,53.20
2022-10-06T21:03:55.709Z,53.30
2022-10-06T21:06:30.420Z,53.30
2022-10-06T21:09:03.865Z,53.30
2022-10-06T21:11:38.637Z,53.30
2022-10-06T21:14:13.378Z,53.40
2022-10-06T21:16:49.852Z,53.50
2022-10-06T21:19:23.947Z,53.50
2022-10-06T21:21:57.248Z,53.40
2022-10-06T21:24:30.671Z,53.40
2022-10-06T21:27:05.422Z,53.50
2022-10-06T21:29:39.025Z,53.60
2022-10-06T21:32:12.485Z,53.80
2022-10-06T21:34:45.734Z,53.80
2022-10-06T21:37:19.141Z,53.80
2022-10-06T21:39:52.742Z,53.90
2022-10-06T21:42:27.648Z,53.90
2022-10-06T21:45:00.944Z,54.00
2022-10-06T21:47:34.621Z,54.10
2022-10-06T21:50:09.246Z,54.80
2022-10-06T21:52:42.460Z,54.40
2022-10-06T21:55:15.891Z,54.30
2022-10-06T21:57:50.721Z,54.40
2022-10-06T22:00:24.417Z,54.30
2022-10-06T22:02:57.751Z,54.60
2022-10-06T22:05:31.020Z,54.60
2022-10-06T22:08:04.286Z,54.80
2022-10-06T22:10:37.722Z,54.90
2022-10-06T22:13:12.345Z,55.00
2022-10-06T22:15:45.865Z,55.20
2022-10-06T22:18:19.183Z,55.20
2022-10-06T22:20:53.762Z,55.20
2022-10-06T22:23:27.224Z,55.30
2022-10-06T22:26:00.581Z,55.40
2022-10-06T22:28:35.357Z,55.40
2022-10-06T22:31:12.405Z,55.30
2022-10-06T22:33:50.652Z,55.40
2022-10-06T22:36:24.442Z,55.50
2022-10-06T22:38:58.571Z,55.50
2022-10-06T22:41:32.162Z,55.70
2022-10-06T22:44:07.133Z,55.70
2022-10-06T22:46:40.915Z,55.60
2022-10-06T22:49:14.693Z,55.20
2022-10-06T22:51:48.273Z,55.00
2022-10-06T22:54:22.428Z,55.80
2022-10-06T22:56:56.191Z,55.90
2022-10-06T22:59:30.951Z,55.90
2022-10-06T23:02:04.524Z,55.80
2022-10-06T23:04:37.891Z,56.00
2022-10-06T23:07:11.330Z,56.00
2022-10-06T23:09:44.625Z,56.00
2022-10-06T23:12:18.516Z,56.20
2022-10-06T23:14:53.147Z,56.20
2022-10-06T23:17:26.737Z,56.20
2022-10-06T23:20:00.046Z,56.10
2022-10-06T23:22:33.519Z,56.10
2022-10-06T23:25:09.946Z,56.30
2022-10-06T23:27:43.471Z,56.30
2022-10-06T23:30:18.935Z,56.20
2022-10-06T23:32:52.556Z,56.30
2022-10-06T23:35:25.905Z,56.30
2022-10-06T23:37:59.294Z,56.30
2022-10-06T23:40:32.596Z,56.40
2022-10-06T23:43:06.096Z,56.20
2022-10-06T23:45:40.874Z,56.40
2022-10-06T23:48:14.572Z,56.40
2022-10-06T23:50:58.136Z,56.50
2022-10-06T23:53:33.057Z,56.70
2022-10-06T23:56:07.530Z,56.50
2022-10-06T23:58:41.696Z,56.60
